createdAt,value
2022-11-29T00:01:23.888Z,7.05
2022-11-29T00:03:51.891Z,7.07
2022-11-29T00:06:21.488Z,7.13
2022-11-29T00:08:49.367Z,9.50
2022-11-29T00:11:40.200Z,5.53
2022-11-29T00:14:09.827Z,7.47
2022-11-29T00:16:36.906Z,5.78
2022-11-29T00:19:04.377Z,7.22
2022-11-29T00:21:31.367Z,6.75
2022-11-29T00:23:58.506Z,7.07
2022-11-29T00:26:25.586Z,8.32
2022-11-29T00:28:54.098Z,5.70
2022-11-29T00:31:32.016Z,7.93
2022-11-29T00:34:03.919Z,7.07
2022-11-29T00:36:31.230Z,7.65
2022-11-29T00:38:58.473Z,7.15
2022-11-29T00:41:25.614Z,8.27
2022-11-29T00:43:53.071Z,8.38
2022-11-29T00:46:20.196Z,6.47
2022-11-29T00:48:47.316Z,8.27
2022-11-29T00:51:14.462Z,6.68
2022-11-29T00:53:41.428Z,6.13
2022-11-29T00:56:08.791Z,9.05
2022-11-29T00:58:36.800Z,8.60
2022-11-29T01:01:04.315Z,8.77
2022-11-29T01:03:31.697Z,10.25
2022-11-29T01:06:08.883Z,8.77
2022-11-29T01:08:36.534Z,8.75
2022-11-29T01:11:12.512Z,6.97
2022-11-29T01:13:39.998Z,8.38
2022-11-29T01:16:07.454Z,8.27
2022-11-29T01:18:35.062Z,8.73
2022-11-29T01:21:06.520Z,9.27
2022-11-29T01:23:34.893Z,8.38
2022-11-29T01:26:09.117Z,9.30
2022-11-29T01:28:37.194Z,7.90
2022-11-29T01:31:08.931Z,9.00
2022-11-29T01:33:37.293Z,8.88
2022-11-29T01:36:05.722Z,9.77
2022-11-29T01:38:33.235Z,4.50
2022-11-29T01:41:28.529Z,7.00
2022-11-29T01:44:03.655Z,7.25
2022-11-29T01:46:39.481Z,5.18
2022-11-29T01:49:17.470Z,7.82
2022-11-29T01:52:19.348Z,5.63
2022-11-29T01:54:51.114Z,7.05
2022-11-29T01:57:20.340Z,6.82
2022-11-29T01:59:52.580Z,6.63
2022-11-29T02:02:31.199Z,8.18
2022-11-29T02:05:00.587Z,5.22
2022-11-29T02:07:27.693Z,6.53
2022-11-29T02:09:54.734Z,6.32
2022-11-29T02:12:27.533Z,6.55
2022-11-29T02:15:49.749Z,7.22
2022-11-29T02:18:33.269Z,6.72
2022-11-29T02:21:11.463Z,6.05
2022-11-29T02:24:03.822Z,7.80
2022-11-29T02:26:57.929Z,8.25
2022-11-29T02:29:55.986Z,8.48
2022-11-29T02:32:38.016Z,6.82
2022-11-29T02:35:10.918Z,6.82
2022-11-29T02:37:50.043Z,7.95
2022-11-29T02:40:25.865Z,6.55
2022-11-29T02:43:11.549Z,8.32
2022-11-29T02:46:03.233Z,8.60
2022-11-29T02:48:45.412Z,6.30
2022-11-29T02:51:23.356Z,6.53
2022-11-29T02:53:53.596Z,5.03
2022-11-29T02:58:55.917Z,4.40
2022-11-29T03:01:33.961Z,5.30
2022-11-29T03:04:20.552Z,5.55
2022-11-29T03:07:13.348Z,7.68
2022-11-29T03:10:32.699Z,7.25
2022-11-29T03:13:02.306Z,4.97
2022-11-29T03:15:33.590Z,8.30
2022-11-29T03:18:25.442Z,7.53
2022-11-29T03:20:52.469Z,7.57
2022-11-29T03:23:37.295Z,5.22
2022-11-29T03:26:24.791Z,5.50
2022-11-29T03:28:56.426Z,5.57
2022-11-29T03:31:35.662Z,6.35
2022-11-29T03:34:41.038Z,4.57
2022-11-29T03:37:49.410Z,7.22
2022-11-29T03:40:21.679Z,5.70
2022-11-29T03:42:56.558Z,6.38
2022-11-29T03:45:39.668Z,8.18
2022-11-29T03:48:22.071Z,5.75
2022-11-29T03:51:01.306Z,6.85
2022-11-29T03:53:34.326Z,6.83
2022-11-29T03:56:03.543Z,7.72
2022-11-29T03:58:33.316Z,6.55
2022-11-29T04:01:30.645Z,7.05
2022-11-29T04:04:03.465Z,6.18
2022-11-29T04:07:00.868Z,4.18
2022-11-29T04:09:30.815Z,5.60
2022-11-29T04:12:13.048Z,5.43
2022-11-29T04:14:52.199Z,4.30
2022-11-29T04:17:27.963Z,7.85
2022-11-29T04:20:10.691Z,6.07
2022-11-29T04:22:54.102Z,5.05
2022-11-29T04:25:39.729Z,6.68
2022-11-29T04:28:36.626Z,6.50
2022-11-29T04:31:24.759Z,5.20
2022-11-29T04:34:16.410Z,6.13
2022-11-29T04:37:18.677Z,7.07
2022-11-29T04:40:47.114Z,7.18
2022-11-29T04:43:13.997Z,6.82
2022-11-29T04:46:14.888Z,7.45
2022-11-29T04:49:07.397Z,5.38
2022-11-29T04:51:52.217Z,5.72
2022-11-29T04:54:49.414Z,7.97
2022-11-29T04:57:34.541Z,8.65
2022-11-29T05:00:07.411Z,5.30
2022-11-29T05:02:43.600Z,7.50
2022-11-29T05:05:31.685Z,6.43
2022-11-29T05:08:17.590Z,7.00
2022-11-29T05:11:26.264Z,9.25
2022-11-29T05:14:18.936Z,9.20
2022-11-29T05:17:09.707Z,6.82
2022-11-29T05:19:58.585Z,8.68
2022-11-29T05:22:47.638Z,10.57
2022-11-29T05:25:37.460Z,10.35
2022-11-29T05:28:16.761Z,9.02
2022-11-29T05:30:43.720Z,8.13
2022-11-29T05:33:28.919Z,11.20
2022-11-29T05:36:08.794Z,7.95
2022-11-29T05:39:01.338Z,7.18
2022-11-29T05:41:52.734Z,7.85
2022-11-29T05:44:41.516Z,7.00
2022-11-29T05:47:10.312Z,6.78
2022-11-29T05:49:50.200Z,10.02
2022-11-29T05:52:42.368Z,6.00
2022-11-29T05:55:51.907Z,7.20
2022-11-29T05:58:40.141Z,8.50
2022-11-29T06:01:22.891Z,10.07
2022-11-29T06:04:28.868Z,9.68
2022-11-29T06:07:04.591Z,11.15
2022-11-29T06:10:01.620Z,11.57
2022-11-29T06:12:37.529Z,9.57
2022-11-29T06:15:23.570Z,11.25
2022-11-29T06:17:55.317Z,10.18
2022-11-29T06:21:14.874Z,11.45
2022-11-29T06:23:59.899Z,9.85
2022-11-29T06:26:42.643Z,11.23
2022-11-29T06:29:41.954Z,8.02
2022-11-29T06:32:42.386Z,11.20
2022-11-29T06:35:33.033Z,7.70
2022-11-29T06:38:06.795Z,9.90
2022-11-29T06:40:34.034Z,6.45
2022-11-29T06:43:01.247Z,10.52
2022-11-29T06:45:28.637Z,10.88
2022-11-29T06:48:03.789Z,7.93
2022-11-29T06:50:45.480Z,10.05
2022-11-29T06:53:33.698Z,6.80
2022-11-29T06:56:21.207Z,9.68
2022-11-29T06:59:04.416Z,11.95
2022-11-29T07:01:37.632Z,10.30
2022-11-29T07:04:15.763Z,10.30
2022-11-29T07:06:43.177Z,11.98
2022-11-29T07:09:46.639Z,9.93
2022-11-29T07:12:14.380Z,8.20
2022-11-29T07:14:41.670Z,10.80
2022-11-29T07:17:20.602Z,11.30
2022-11-29T07:20:12.365Z,11.13
2022-11-29T07:23:03.367Z,8.18
2022-11-29T07:26:02.827Z,9.25
2022-11-29T07:28:48.583Z,10.15
2022-11-29T07:31:34.795Z,7.57
2022-11-29T07:34:22.288Z,8.70
2022-11-29T07:36:52.179Z,7.93
2022-11-29T07:39:30.680Z,8.30
2022-11-29T07:42:10.833Z,6.03
2022-11-29T07:47:05.058Z,9.82
2022-11-29T07:49:32.462Z,5.68
2022-11-29T07:51:59.505Z,4.80
2022-11-29T07:54:26.880Z,15.55
2022-11-29T07:56:53.982Z,7.88
2022-11-29T07:59:21.056Z,7.30
2022-11-29T08:01:48.681Z,8.18
2022-11-29T08:04:19.090Z,7.95
2022-11-29T08:06:46.133Z,7.57
2022-11-29T08:09:13.581Z,7.63
2022-11-29T08:11:40.689Z,6.88
2022-11-29T08:14:07.859Z,6.75
2022-11-29T08:16:34.869Z,7.47
2022-11-29T08:19:01.989Z,7.90
2022-11-29T08:21:28.901Z,8.00
2022-11-29T08:23:55.973Z,8.40
2022-11-29T08:26:26.885Z,7.43
2022-11-29T08:28:58.100Z,8.68
2022-11-29T08:31:26.433Z,9.70
2022-11-29T08:33:53.574Z,7.15
2022-11-29T08:36:21.078Z,7.00
2022-11-29T08:38:48.389Z,7.68
2022-11-29T08:41:17.477Z,8.73
2022-11-29T08:43:44.789Z,8.13
2022-11-29T08:46:18.035Z,8.75
2022-11-29T08:48:46.710Z,8.63
2022-11-29T08:51:14.190Z,8.95
2022-11-29T08:53:46.444Z,8.32
2022-11-29T08:59:06.152Z,8.20
2022-11-29T09:01:33.251Z,8.13
2022-11-29T09:04:00.204Z,8.18
2022-11-29T09:06:31.892Z,8.07
2022-11-29T09:09:00.525Z,7.22
2022-11-29T09:11:29.449Z,9.27
2022-11-29T09:13:59.931Z,8.30
2022-11-29T09:16:30.974Z,10.52
2022-11-29T09:18:58.068Z,10.77
2022-11-29T09:21:27.913Z,11.35
2022-11-29T09:23:59.344Z,11.32
2022-11-29T09:26:29.357Z,12.35
2022-11-29T09:28:58.425Z,10.18
2022-11-29T09:31:27.269Z,8.63
2022-11-29T09:33:55.079Z,10.80
2022-11-29T09:36:27.853Z,11.68
2022-11-29T09:38:55.702Z,9.85
2022-11-29T09:41:22.627Z,10.35
2022-11-29T09:44:17.117Z,12.13
2022-11-29T09:47:17.637Z,11.55
2022-11-29T09:49:56.801Z,11.75
2022-11-29T09:52:32.846Z,10.35
2022-11-29T09:55:10.416Z,7.97
2022-11-29T09:57:38.710Z,8.23
2022-11-29T10:00:14.456Z,9.00
2022-11-29T10:02:47.928Z,9.10
2022-11-29T10:05:28.603Z,7.75
2022-11-29T10:08:06.853Z,10.60
2022-11-29T10:10:41.734Z,8.80
2022-11-29T10:13:11.701Z,9.43
2022-11-29T10:15:44.582Z,11.80
2022-11-29T10:18:22.208Z,8.18
2022-11-29T10:20:51.915Z,11.57
2022-11-29T10:23:29.850Z,10.00
2022-11-29T10:25:58.191Z,11.93
2022-11-29T10:28:30.771Z,11.48
2022-11-29T10:31:14.360Z,10.60
2022-11-29T10:33:42.101Z,10.45
2022-11-29T10:36:35.296Z,13.35
2022-11-29T10:39:22.385Z,13.98
2022-11-29T10:42:04.008Z,12.13
2022-11-29T10:44:33.405Z,12.45
2022-11-29T10:47:09.443Z,9.88
2022-11-29T10:49:40.280Z,12.52
2022-11-29T10:52:19.609Z,12.05
2022-11-29T10:54:50.098Z,9.77
2022-11-29T10:57:22.357Z,11.02
2022-11-29T11:00:09.957Z,11.90
2022-11-29T11:02:38.097Z,15.55
2022-11-29T11:05:18.602Z,11.35
2022-11-29T11:07:47.580Z,11.90
2022-11-29T11:10:27.315Z,10.90
2022-11-29T11:13:08.204Z,13.13
2022-11-29T11:15:35.531Z,15.20
2022-11-29T11:18:05.691Z,14.35
2022-11-29T11:23:08.144Z,14.07
2022-11-29T11:25:39.725Z,14.30
2022-11-29T11:28:22.389Z,15.13
2022-11-29T11:31:05.770Z,15.05
2022-11-29T11:33:42.432Z,17.80
2022-11-29T11:36:21.282Z,15.25
2022-11-29T11:39:18.502Z,11.68
2022-11-29T11:42:05.410Z,13.15
2022-11-29T11:44:47.563Z,11.38
2022-11-29T11:47:24.464Z,8.57
2022-11-29T11:50:00.301Z,14.73
2022-11-29T11:52:33.797Z,17.55
2022-11-29T11:55:18.624Z,14.68
2022-11-29T11:57:45.796Z,14.10
2022-11-29T12:01:03.493Z,8.90
2022-11-29T12:04:11.733Z,10.00
2022-11-29T12:06:47.567Z,11.32
2022-11-29T12:09:35.170Z,12.50
2022-11-29T12:12:13.929Z,12.82
2022-11-29T12:14:59.655Z,12.75
2022-11-29T12:17:40.163Z,10.70
2022-11-29T12:20:29.515Z,12.98
2022-11-29T12:23:03.462Z,9.65
2022-11-29T12:25:46.432Z,12.20
2022-11-29T12:28:20.067Z,10.23
2022-11-29T12:31:33.754Z,9.90
2022-11-29T12:34:22.422Z,9.07
2022-11-29T12:37:22.427Z,11.88
2022-11-29T12:40:24.351Z,13.82
2022-11-29T12:43:18.924Z,10.35
2022-11-29T12:45:49.492Z,11.15
2022-11-29T12:48:29.851Z,10.05
2022-11-29T12:51:05.979Z,12.48
2022-11-29T12:53:38.694Z,11.10
2022-11-29T12:56:28.247Z,13.98
2022-11-29T12:59:14.098Z,10.48
2022-11-29T13:02:02.979Z,12.70
2022-11-29T13:04:39.748Z,11.45
2022-11-29T13:07:23.758Z,11.32
2022-11-29T13:09:57.206Z,10.98
2022-11-29T13:12:40.783Z,13.20
2022-11-29T13:15:17.064Z,12.48
2022-11-29T13:18:00.744Z,12.25
2022-11-29T13:20:58.027Z,14.18
2022-11-29T13:26:38.241Z,17.50
2022-11-29T13:29:07.818Z,11.57
2022-11-29T13:31:35.710Z,16.13
2022-11-29T13:34:15.517Z,12.60
2022-11-29T13:36:54.343Z,12.48
2022-11-29T13:39:39.582Z,14.65
2022-11-29T13:42:31.799Z,13.65
2022-11-29T13:45:07.657Z,17.17
2022-11-29T13:47:53.256Z,13.27
2022-11-29T13:50:40.748Z,17.38
2022-11-29T13:53:15.207Z,15.05
2022-11-29T13:56:15.323Z,19.15
2022-11-29T14:01:12.814Z,19.05
2022-11-29T14:03:43.329Z,17.95
2022-11-29T14:06:15.469Z,15.10
2022-11-29T14:09:24.048Z,20.85
2022-11-29T14:12:19.019Z,14.45
2022-11-29T14:15:03.305Z,10.00
2022-11-29T14:17:51.157Z,15.25
2022-11-29T14:20:24.983Z,17.35
2022-11-29T14:23:07.843Z,10.88
2022-11-29T14:25:52.941Z,16.90
2022-11-29T14:28:22.859Z,11.77
2022-11-29T14:30:54.738Z,13.10
2022-11-29T14:33:42.301Z,14.77
2022-11-29T14:36:15.390Z,12.40
2022-11-29T14:38:48.137Z,8.90
2022-11-29T14:41:34.450Z,14.93
2022-11-29T14:44:28.319Z,13.15
2022-11-29T14:47:02.736Z,14.60
2022-11-29T14:49:36.302Z,14.70
2022-11-29T14:52:16.155Z,14.93
2022-11-29T14:55:02.338Z,16.13
2022-11-29T14:57:57.870Z,13.38
2022-11-29T15:00:30.901Z,12.85
2022-11-29T15:03:09.090Z,14.15
2022-11-29T15:05:38.914Z,13.23
2022-11-29T15:08:09.728Z,14.95
2022-11-29T15:10:42.449Z,11.38
2022-11-29T15:13:13.844Z,11.98
2022-11-29T15:15:49.891Z,16.60
2022-11-29T15:18:30.400Z,10.25
2022-11-29T15:21:24.329Z,14.60
2022-11-29T15:23:59.927Z,15.80
2022-11-29T15:26:27.028Z,13.95
2022-11-29T15:28:54.301Z,16.17
2022-11-29T15:31:21.919Z,14.68
2022-11-29T15:33:50.736Z,17.00
2022-11-29T15:36:20.747Z,19.03
2022-11-29T15:38:50.448Z,18.88
2022-11-29T15:41:35.197Z,20.63
2022-11-29T15:44:19.766Z,15.63
2022-11-29T15:46:46.708Z,14.33
2022-11-29T15:49:34.584Z,15.50
2022-11-29T15:52:07.828Z,15.40
2022-11-29T15:54:42.100Z,15.40
2022-11-29T15:57:18.913Z,16.58
2022-11-29T15:59:53.139Z,16.80
2022-11-29T16:02:25.940Z,15.65
2022-11-29T16:04:57.266Z,18.75
2022-11-29T16:07:26.922Z,19.77
2022-11-29T16:09:59.184Z,15.25
2022-11-29T16:12:26.774Z,17.17
2022-11-29T16:15:01.454Z,10.75
2022-11-29T16:17:34.072Z,19.88
2022-11-29T16:20:26.940Z,20.77
2022-11-29T16:23:14.511Z,14.00
2022-11-29T16:26:15.734Z,17.23
2022-11-29T16:28:48.250Z,14.23
2022-11-29T16:31:24.134Z,16.67
2022-11-29T16:33:52.866Z,16.13
2022-11-29T16:36:26.998Z,14.23
2022-11-29T16:39:07.453Z,16.15
2022-11-29T16:41:37.932Z,13.27
2022-11-29T16:44:06.966Z,19.77
2022-11-29T16:46:40.676Z,11.73
2022-11-29T16:49:34.708Z,15.80
2022-11-29T16:52:04.277Z,19.05
2022-11-29T16:57:07.092Z,9.80
2022-11-29T16:59:35.491Z,15.02
2022-11-29T17:02:02.999Z,16.77
2022-11-29T17:04:30.077Z,18.80
2022-11-29T17:06:57.894Z,15.52
2022-11-29T17:09:33.281Z,12.95
2022-11-29T17:12:02.225Z,19.80
2022-11-29T17:14:30.017Z,18.70
2022-11-29T17:16:57.675Z,17.98
2022-11-29T17:19:28.980Z,17.80
2022-11-29T17:21:56.238Z,17.67
2022-11-29T17:24:24.176Z,17.17
2022-11-29T17:26:51.708Z,17.35
2022-11-29T17:29:19.134Z,17.83
2022-11-29T17:31:47.211Z,13.50
2022-11-29T17:34:14.257Z,14.57
2022-11-29T17:36:41.247Z,12.88
2022-11-29T17:39:08.843Z,14.60
2022-11-29T17:41:36.003Z,14.07
2022-11-29T17:44:03.312Z,11.23
2022-11-29T17:46:32.148Z,14.02
2022-11-29T17:49:01.459Z,17.27
2022-11-29T17:54:16.396Z,19.67
2022-11-29T17:56:43.412Z,16.83
2022-11-29T17:59:10.454Z,17.92
2022-11-29T18:01:37.744Z,18.15
2022-11-29T18:04:06.347Z,13.75
2022-11-29T18:06:40.716Z,17.42
2022-11-29T18:09:10.339Z,11.82
2022-11-29T18:11:47.687Z,17.45
2022-11-29T18:14:19.168Z,15.95
2022-11-29T18:16:46.608Z,14.90
2022-11-29T18:19:19.106Z,17.25
2022-11-29T18:21:46.795Z,20.10
2022-11-29T18:24:13.978Z,17.55
2022-11-29T18:26:41.868Z,22.67
2022-11-29T18:29:10.163Z,22.13
2022-11-29T18:31:39.972Z,19.65
2022-11-29T18:34:11.802Z,18.20
2022-11-29T18:36:45.282Z,21.77
2022-11-29T18:39:16.590Z,22.25
2022-11-29T18:41:47.088Z,12.82
2022-11-29T18:44:16.779Z,22.00
2022-11-29T18:46:45.431Z,12.55
2022-11-29T18:49:15.049Z,18.05
2022-11-29T18:51:45.041Z,18.52
2022-11-29T18:54:13.273Z,17.77
2022-11-29T18:56:40.982Z,20.65
2022-11-29T18:59:11.344Z,18.90
2022-11-29T19:01:43.400Z,19.92
2022-11-29T19:04:14.251Z,18.70
2022-11-29T19:06:42.663Z,18.67
2022-11-29T19:09:33.857Z,20.70
2022-11-29T19:12:04.079Z,15.57
2022-11-29T19:14:34.573Z,14.95
2022-11-29T19:17:02.350Z,14.07
2022-11-29T19:19:36.810Z,15.05
2022-11-29T19:22:06.635Z,16.58
2022-11-29T19:24:36.624Z,17.50
2022-11-29T19:27:04.865Z,17.15
2022-11-29T19:29:38.183Z,16.02
2022-11-29T19:32:08.581Z,15.20
2022-11-29T19:34:35.870Z,17.50
2022-11-29T19:37:03.097Z,15.25
2022-11-29T19:39:34.131Z,16.15
2022-11-29T19:42:01.219Z,14.00
2022-11-29T19:44:30.120Z,11.38
2022-11-29T19:46:59.298Z,13.23
2022-11-29T19:49:26.337Z,13.80
2022-11-29T19:51:53.797Z,14.52
2022-11-29T19:54:20.988Z,11.75
2022-11-29T19:56:48.151Z,10.75
2022-11-29T19:59:16.348Z,14.43
2022-11-29T20:01:43.841Z,14.48
2022-11-29T20:04:13.065Z,11.90
2022-11-29T20:06:40.484Z,12.40
2022-11-29T20:09:07.998Z,13.07
2022-11-29T20:11:35.468Z,15.13
2022-11-29T20:14:07.490Z,11.40
2022-11-29T20:16:35.470Z,11.27
2022-11-29T20:19:02.654Z,8.00
2022-11-29T20:21:32.509Z,11.38
2022-11-29T20:24:05.657Z,10.60
2022-11-29T20:26:35.309Z,14.20
2022-11-29T20:29:07.373Z,14.65
2022-11-29T20:31:36.255Z,13.57
2022-11-29T20:34:06.751Z,10.43
2022-11-29T20:36:43.078Z,14.55
2022-11-29T20:39:29.043Z,16.52
2022-11-29T20:41:56.056Z,12.73
2022-11-29T20:44:44.390Z,15.35
2022-11-29T20:47:23.225Z,18.25
2022-11-29T20:49:50.498Z,17.17
2022-11-29T20:52:49.345Z,15.02
2022-11-29T20:55:16.378Z,14.82
2022-11-29T20:57:48.865Z,13.38
2022-11-29T21:00:18.953Z,13.02
2022-11-29T21:02:46.278Z,18.50
2022-11-29T21:05:19.786Z,15.32
2022-11-29T21:07:46.938Z,14.55
2022-11-29T21:10:16.831Z,7.80
2022-11-29T21:12:47.581Z,13.07
2022-11-29T21:15:18.067Z,13.88
2022-11-29T21:17:45.937Z,15.93
2022-11-29T21:20:26.880Z,14.68
2022-11-29T21:23:22.495Z,16.88
2022-11-29T21:26:05.212Z,12.73
2022-11-29T21:28:47.075Z,15.93
2022-11-29T21:31:17.535Z,12.75
2022-11-29T21:33:48.051Z,20.67
2022-11-29T21:36:15.377Z,15.75
2022-11-29T21:38:43.015Z,13.55
2022-11-29T21:41:11.020Z,15.88
2022-11-29T21:44:05.574Z,19.88
2022-11-29T21:48:58.218Z,16.42
2022-11-29T21:51:25.244Z,15.00
2022-11-29T21:53:52.260Z,23.58
2022-11-29T21:56:22.021Z,20.05
2022-11-29T21:58:51.495Z,19.95
2022-11-29T22:01:20.416Z,18.90
2022-11-29T22:03:48.204Z,14.80
2022-11-29T22:06:20.611Z,14.50
2022-11-29T22:08:48.485Z,16.70
2022-11-29T22:14:14.038Z,16.75
2022-11-29T22:16:55.250Z,15.30
2022-11-29T22:19:33.792Z,16.90
2022-11-29T22:22:03.912Z,14.63
2022-11-29T22:24:36.481Z,14.15
2022-11-29T22:27:03.795Z,15.88
2022-11-29T22:29:30.804Z,14.75
2022-11-29T22:31:59.456Z,16.15
2022-11-29T22:34:27.674Z,10.85
2022-11-29T22:36:55.565Z,15.73
2022-11-29T22:39:24.074Z,15.32
2022-11-29T22:41:54.794Z,12.88
2022-11-29T22:44:23.657Z,13.98
2022-11-29T22:46:51.300Z,14.60
2022-11-29T22:49:18.329Z,11.43
2022-11-29T22:51:45.254Z,14.18
2022-11-29T22:54:15.551Z,14.10
2022-11-29T22:56:44.009Z,17.25
2022-11-29T22:59:11.049Z,15.65
2022-11-29T23:01:39.656Z,15.98
2022-11-29T23:04:10.931Z,14.75
2022-11-29T23:06:41.190Z,10.07
2022-11-29T23:09:12.225Z,13.27
2022-11-29T23:11:39.447Z,15.25
2022-11-29T23:14:06.529Z,12.02
2022-11-29T23:16:34.188Z,13.23
2022-11-29T23:19:02.704Z,14.90
2022-11-29T23:21:35.363Z,15.15
2022-11-29T23:24:03.219Z,13.38
2022-11-29T23:26:40.116Z,11.75
2022-11-29T23:29:12.776Z,15.00
2022-11-29T23:31:40.502Z,17.17
2022-11-29T23:34:07.832Z,21.15
2022-11-29T23:36:35.862Z,19.08
2022-11-29T23:39:07.215Z,13.07
2022-11-29T23:41:37.697Z,18.60
2022-11-29T23:44:05.540Z,15.43
2022-11-29T23:46:32.750Z,17.95
2022-11-29T23:48:59.778Z,14.13
2022-11-29T23:51:26.888Z,14.18
2022-11-29T23:53:55.694Z,14.50
2022-11-29T23:56:22.952Z,16.00
2022-11-29T23:58:50.222Z,15.82
